createdAt,value
2019-03-29T00:02:27.601Z,46.97
2019-03-29T00:07:39.486Z,46.84
2019-03-29T00:12:36.244Z,46.91
2019-03-29T00:17:39.889Z,46.93
2019-03-29T00:22:43.359Z,46.92
2019-03-29T00:27:46.841Z,46.88
2019-03-29T00:32:50.300Z,46.90
2019-03-29T00:37:55.743Z,46.88
2019-03-29T00:42:58.970Z,46.88
2019-03-29T00:48:02.457Z,46.96
2019-03-29T00:53:05.929Z,46.96
2019-03-29T00:58:09.404Z,46.87
2019-03-29T01:03:12.895Z,46.87
2019-03-29T01:08:16.351Z,46.84
2019-03-29T01:13:19.825Z,46.81
2019-03-29T01:18:23.302Z,46.76
2019-03-29T01:23:26.782Z,46.79
2019-03-29T01:28:30.241Z,46.79
2019-03-29T01:33:33.700Z,46.79
2019-03-29T01:38:37.164Z,46.78
2019-03-29T01:43:40.622Z,46.77
2019-03-29T01:48:44.082Z,46.76
2019-03-29T01:53:47.544Z,46.78
2019-03-29T01:58:51.020Z,46.73
2019-03-29T02:03:54.797Z,46.78
2019-03-29T02:08:58.198Z,46.75
2019-03-29T02:14:01.656Z,46.73
2019-03-29T02:19:05.283Z,46.70
2019-03-29T02:24:09.463Z,46.70
2019-03-29T02:29:12.925Z,46.71
2019-03-29T02:34:16.423Z,46.69
2019-03-29T02:39:19.847Z,46.65
2019-03-29T02:44:23.333Z,46.61
2019-03-29T02:49:26.821Z,46.65
2019-03-29T02:54:30.287Z,46.61
2019-03-29T02:59:33.745Z,46.63
2019-03-29T03:04:37.205Z,46.58
2019-03-29T03:09:40.665Z,46.60
2019-03-29T03:14:44.126Z,46.57
2019-03-29T03:19:47.586Z,46.57
2019-03-29T03:24:51.048Z,46.58
2019-03-29T03:29:54.497Z,46.56
2019-03-29T03:34:57.969Z,46.55
2019-03-29T03:40:01.418Z,46.53
2019-03-29T03:45:09.057Z,46.49
2019-03-29T03:50:32.275Z,46.50
2019-03-29T03:55:38.383Z,46.49
2019-03-29T04:00:53.283Z,46.50
2019-03-29T04:05:57.407Z,46.50
2019-03-29T04:11:00.875Z,46.49
2019-03-29T04:16:04.332Z,46.51
2019-03-29T04:21:07.798Z,46.49
2019-03-29T04:26:11.255Z,46.48
2019-03-29T04:31:14.712Z,46.48
2019-03-29T04:36:18.166Z,46.47
2019-03-29T04:41:21.619Z,46.49
2019-03-29T04:46:25.077Z,46.41
2019-03-29T04:51:28.539Z,46.40
2019-03-29T04:56:31.991Z,46.44
2019-03-29T05:01:35.454Z,46.57
2019-03-29T05:06:38.913Z,46.60
2019-03-29T05:11:42.368Z,46.72
2019-03-29T05:16:45.831Z,46.79
2019-03-29T05:21:49.295Z,46.82
2019-03-29T05:26:52.755Z,46.79
2019-03-29T05:31:56.214Z,46.98
2019-03-29T05:36:59.673Z,47.02
2019-03-29T05:42:03.133Z,47.06
2019-03-29T05:47:06.595Z,47.07
2019-03-29T05:52:10.052Z,47.10
2019-03-29T05:57:13.512Z,47.14
2019-03-29T06:02:16.979Z,47.18
2019-03-29T06:07:20.428Z,47.17
2019-03-29T06:12:23.879Z,47.17
2019-03-29T06:17:27.335Z,47.26
2019-03-29T06:22:30.791Z,47.21
2019-03-29T06:27:34.253Z,47.27
2019-03-29T06:32:37.703Z,47.27
2019-03-29T06:37:44.399Z,47.29
2019-03-29T06:42:47.856Z,47.29
2019-03-29T06:47:51.318Z,47.27
2019-03-29T06:52:54.778Z,47.29
2019-03-29T06:57:58.231Z,47.30
2019-03-29T07:03:01.690Z,47.27
2019-03-29T07:08:05.147Z,47.33
2019-03-29T07:13:08.620Z,47.30
2019-03-29T07:18:12.087Z,47.30
2019-03-29T07:23:15.539Z,47.35
2019-03-29T07:28:18.998Z,47.29
2019-03-29T07:33:22.454Z,47.31
2019-03-29T07:38:25.910Z,47.30
2019-03-29T07:43:29.374Z,47.32
2019-03-29T07:48:32.833Z,47.29
2019-03-29T07:53:36.294Z,47.34
2019-03-29T07:58:39.761Z,42.20
2019-03-29T08:03:43.231Z,41.31
2019-03-29T08:08:46.693Z,41.52
2019-03-29T08:13:50.161Z,41.60
2019-03-29T08:18:53.629Z,41.74
2019-03-29T08:23:57.079Z,42.09
2019-03-29T08:29:00.541Z,42.69
2019-03-29T08:34:04.070Z,42.95
2019-03-29T08:39:10.197Z,43.11
2019-03-29T08:44:13.276Z,43.32
2019-03-29T08:49:17.264Z,43.38
2019-03-29T08:54:20.772Z,43.45
2019-03-29T08:59:24.232Z,43.76
2019-03-29T09:04:27.852Z,43.88
2019-03-29T09:09:31.309Z,44.07
2019-03-29T09:14:34.767Z,44.11
2019-03-29T09:19:38.229Z,44.21
2019-03-29T09:24:41.684Z,44.63
2019-03-29T09:29:45.156Z,44.91
2019-03-29T09:34:48.606Z,45.45
2019-03-29T09:39:52.064Z,46.00
2019-03-29T09:44:55.533Z,46.44
2019-03-29T09:49:58.978Z,46.52
2019-03-29T09:55:02.461Z,46.97
2019-03-29T10:00:19.382Z,46.56
2019-03-29T10:05:14.056Z,44.49
2019-03-29T10:10:17.517Z,44.33
2019-03-29T10:15:20.975Z,44.33
2019-03-29T10:20:24.437Z,44.17
2019-03-29T10:25:27.897Z,43.58
2019-03-29T10:30:46.051Z,43.75
2019-03-29T10:35:52.241Z,43.94
2019-03-29T10:40:52.690Z,44.63
2019-03-29T10:45:56.315Z,45.13
2019-03-29T10:51:00.411Z,45.22
2019-03-29T10:56:04.204Z,45.14
2019-03-29T11:01:07.733Z,44.70
2019-03-29T11:06:11.188Z,44.13
2019-03-29T11:11:14.642Z,43.61
2019-03-29T11:16:18.103Z,43.61
2019-03-29T11:21:21.639Z,43.81
2019-03-29T11:26:25.092Z,44.16
2019-03-29T11:31:28.554Z,43.59
2019-03-29T11:36:32.014Z,43.30
2019-03-29T11:41:35.468Z,43.38
2019-03-29T11:46:38.933Z,43.32
2019-03-29T11:51:42.392Z,43.20
2019-03-29T11:56:47.614Z,42.90
2019-03-29T12:01:51.041Z,42.90
2019-03-29T12:06:54.496Z,42.70
2019-03-29T12:11:57.954Z,42.62
2019-03-29T12:17:01.422Z,41.62
2019-03-29T12:22:04.876Z,41.62
2019-03-29T12:27:08.332Z,41.50
2019-03-29T12:32:11.794Z,41.42
2019-03-29T12:37:15.254Z,41.52
2019-03-29T12:42:18.722Z,41.54
2019-03-29T12:47:22.181Z,41.34
2019-03-29T12:52:25.635Z,41.45
2019-03-29T12:57:29.095Z,41.58
2019-03-29T13:02:34.561Z,41.57
2019-03-29T13:07:37.739Z,41.18
2019-03-29T13:12:41.196Z,41.23
2019-03-29T13:17:44.653Z,41.25
2019-03-29T13:22:48.115Z,41.23
2019-03-29T13:27:51.581Z,41.26
2019-03-29T13:32:55.037Z,41.29
2019-03-29T13:37:58.493Z,41.22
2019-03-29T13:43:02.801Z,41.31
2019-03-29T13:48:06.261Z,41.43
2019-03-29T13:53:09.733Z,41.53
2019-03-29T13:58:13.176Z,41.63
2019-03-29T14:03:16.642Z,41.76
2019-03-29T14:08:20.095Z,41.91
2019-03-29T14:13:23.997Z,41.98
2019-03-29T14:18:27.447Z,42.01
2019-03-29T14:23:30.904Z,42.06
2019-03-29T14:28:34.362Z,42.26
2019-03-29T14:33:37.824Z,42.37
2019-03-29T14:38:41.276Z,42.42
2019-03-29T14:43:44.739Z,42.49
2019-03-29T14:48:48.191Z,42.46
2019-03-29T14:53:51.654Z,42.48
2019-03-29T14:58:55.116Z,42.51
2019-03-29T15:03:58.573Z,42.49
2019-03-29T15:09:05.071Z,42.56
2019-03-29T15:14:08.529Z,42.58
2019-03-29T15:19:11.982Z,42.55
2019-03-29T15:24:15.446Z,42.57
2019-03-29T15:29:18.904Z,42.58
2019-03-29T15:34:22.364Z,42.59
2019-03-29T15:39:25.820Z,42.61
2019-03-29T15:44:29.690Z,42.56
2019-03-29T15:49:33.144Z,42.55
2019-03-29T15:54:36.607Z,42.54
2019-03-29T15:59:40.069Z,42.55
2019-03-29T16:04:43.806Z,42.52
2019-03-29T16:09:47.266Z,42.60
2019-03-29T16:14:51.593Z,42.60
2019-03-29T16:19:55.582Z,42.62
2019-03-29T16:24:59.037Z,42.62
2019-03-29T16:30:02.499Z,42.64
2019-03-29T16:35:07.823Z,42.64
2019-03-29T16:40:11.623Z,42.71
2019-03-29T16:45:15.082Z,42.67
2019-03-29T16:50:18.535Z,42.76
2019-03-29T16:55:21.993Z,42.94
2019-03-29T17:00:25.453Z,43.12
2019-03-29T17:05:28.910Z,43.26
2019-03-29T17:10:32.365Z,43.38
2019-03-29T17:15:35.823Z,43.47
2019-03-29T17:20:39.289Z,43.64
2019-03-29T17:25:42.769Z,43.78
2019-03-29T17:30:50.316Z,43.81
2019-03-29T17:35:53.785Z,44.02
2019-03-29T17:40:57.260Z,44.34
2019-03-29T17:46:15.153Z,44.48
2019-03-29T17:51:05.933Z,44.63
2019-03-29T17:56:09.407Z,44.86
2019-03-29T18:01:12.881Z,44.82
2019-03-29T18:06:16.359Z,44.73
2019-03-29T18:11:19.831Z,44.67
2019-03-29T18:16:30.409Z,44.65
2019-03-29T18:21:28.505Z,44.64
2019-03-29T18:26:32.047Z,44.63
2019-03-29T18:31:35.803Z,44.69
2019-03-29T18:36:40.209Z,44.65
2019-03-29T18:41:43.675Z,44.71
2019-03-29T18:46:47.234Z,44.74
2019-03-29T18:51:50.711Z,44.74
2019-03-29T18:56:54.178Z,44.76
2019-03-29T19:01:57.701Z,44.83
2019-03-29T19:07:01.160Z,44.83
2019-03-29T19:12:04.612Z,44.87
2019-03-29T19:17:08.069Z,44.88
2019-03-29T19:22:11.536Z,44.85
2019-03-29T19:27:15.159Z,44.92
2019-03-29T19:32:18.615Z,44.93
2019-03-29T19:37:22.072Z,44.89
2019-03-29T19:42:25.527Z,44.84
2019-03-29T19:47:28.984Z,44.88
2019-03-29T19:52:32.440Z,44.84
2019-03-29T19:57:35.900Z,44.79
2019-03-29T20:02:39.354Z,44.78
2019-03-29T20:07:42.816Z,44.76
2019-03-29T20:12:46.272Z,44.70
2019-03-29T20:17:49.728Z,44.66
2019-03-29T20:22:54.725Z,44.63
2019-03-29T20:27:58.939Z,44.67
2019-03-29T20:33:02.395Z,44.56
2019-03-29T20:38:05.858Z,44.57
2019-03-29T20:43:09.319Z,44.60
2019-03-29T20:48:12.773Z,44.63
2019-03-29T20:53:16.235Z,44.65
2019-03-29T20:58:19.698Z,44.67
2019-03-29T21:03:23.157Z,44.64
2019-03-29T21:08:26.613Z,44.67
2019-03-29T21:13:30.107Z,44.69
2019-03-29T21:18:33.533Z,44.71
2019-03-29T21:23:36.994Z,44.78
2019-03-29T21:28:40.449Z,44.75
2019-03-29T21:33:43.906Z,44.78
2019-03-29T21:38:47.361Z,44.79
2019-03-29T21:43:50.822Z,44.78
2019-03-29T21:48:54.275Z,44.77
2019-03-29T21:53:57.732Z,44.79
2019-03-29T21:59:01.188Z,44.82
2019-03-29T22:04:04.812Z,44.71
2019-03-29T22:09:08.808Z,44.74
2019-03-29T22:14:12.272Z,44.77
2019-03-29T22:19:15.726Z,44.82
2019-03-29T22:24:19.183Z,44.87
2019-03-29T22:29:22.641Z,44.92
2019-03-29T22:34:26.096Z,44.92
2019-03-29T22:39:29.560Z,44.95
2019-03-29T22:44:33.021Z,44.98
2019-03-29T22:49:36.476Z,44.99
2019-03-29T22:54:39.937Z,45.01
2019-03-29T22:59:43.401Z,45.05
2019-03-29T23:04:47.193Z,45.03
2019-03-29T23:09:50.700Z,45.08
2019-03-29T23:14:54.160Z,45.11
2019-03-29T23:19:57.621Z,45.09
2019-03-29T23:25:01.086Z,45.09
2019-03-29T23:30:06.902Z,45.09
2019-03-29T23:35:10.356Z,45.13
2019-03-29T23:40:13.818Z,45.12
2019-03-29T23:45:17.450Z,45.12
2019-03-29T23:50:20.908Z,45.19
2019-03-29T23:55:24.363Z,45.19
